Shawmut, Alabama
Current Conditions -  °F | °C
As of 1:55 PM on Friday 24 Oct 2014 (Local Time) from KLGC Reporting Station
Clear Clear  
Wind Chill: 74°   Ceiling: Unl
Heat Index: 74°   Visibility: 10mi
Dew Point: 48°   Wind: 0mph
Humidity: 40%   Direction: NA
Pressure: 30.01"   Gusts: NA
Location:  32.7858°N, 85.1946°W
Report Text: KLGC 241855Z AUTO 00000KT 10SM CLR 23/09 A3001 RMK AO2 T02310087
Loading
Personal Weather Stations






























Interactive Weather Map
Tropical Storm Tracking
New forecast layout! Learn more

10-Day Weather Forecast

Advertisements
Track Severe Weather on mobile